Georgetown, MN (56546)

8:11 AM CST on November 19, 2017 (GMT -0600)
Harwood Triangle | | Change Station

Elev 879 ft 46.98 °N, 96.88 °W | Updated 3 minutes ago

Mostly Cloudy
Mostly Cloudy
16.3 °F
Feels Like 16 °F
N
0.0
Wind Variable Wind from SE
Gusts 1.0 mph

Today
High -- | Low -- °F
--% Chance of Precip.
Yesterday
High -- | Low -- °F
Precip. -- in
Pressure 30.00 in
Visibility 10.0 miles
Clouds Few 12000 ft
Windchill 16 °F
Dew Point 13 °F
Humidity 85%
Rainfall 0.00 in
Snow Depth Not available.
7:36 AM 4:47 PM
New Moon, 1% visible
METAR KFAR 191353Z 17005KT 10SM FEW120 M07/M10 A2995 RMK AO2 SLP159 T10721100
Pressure 30.00 in
Visibility 10.0 miles
Clouds Few 12000 ft
Windchill 16 °F
Dew Point 13 °F
Humidity 85%
Rainfall 0.00 in
Snow Depth Not available.
7:36 AM 4:47 PM
New Moon, 1% visible
METAR KFAR 191353Z 17005KT 10SM FEW120 M07/M10 A2995 RMK AO2 SLP159 T10721100

Get Severe Weather Alerts

Thanks for signing up!

Be on the lookout for a verification email in your inbox.

You'll start receiving the daily forecast at 6 AM.

×

10-Day Weather Forecast

Almanac

Astronomy

Nov. 19, 2017 Rise Set
Actual Time
Civil Twilight
Nautical Twilight
Astronomical Twilight
Moon
Length of Visible Light
Length of Day
Tomorrow will be .
, % of the Moon is Illuminated

Today's Extremes

State Highs State Lows

Community

WunderPhotos

Category 6

Welcome to Category 6. This is the collective home for Weather Underground's featured writeups by Dr. Jeff Masters (right), Bob Henson (left), Chris Burt, and other regular contributors.

Nearby

Air Quality

  Air Quality AQ Index Pollutant
Not available.

Snow Depth

Station Depth Elevation

Earthquake Activity

City Distance Mag. Time & Date
Minimum magnitude displayed is 2.5.

Coastal Water Temperatures

Place Temperature

Stations

Nearby Weather Stations

Station Location Temp. Windchill Dew Point Humidity Wind Precip. Elev Updated Type
                   

Watches & Warnings

There are currently no watches in effect.